sensor_id;sensor_type;location;lat;lon;timestamp;P1;durP1;ratioP1;P2;durP2;ratioP2
10947;SDS011;5526;42.070;24.752;2024-02-21T00:00:46;40.17;;;34.78;;
10947;SDS011;5526;42.070;24.752;2024-02-21T00:03:13;40.40;;;34.10;;
10947;SDS011;5526;42.070;24.752;2024-02-21T00:05:41;42.20;;;35.10;;
10947;SDS011;5526;42.070;24.752;2024-02-21T00:08:08;43.40;;;35.28;;
10947;SDS011;5526;42.070;24.752;2024-02-21T00:10:35;39.10;;;34.80;;
10947;SDS011;5526;42.070;24.752;2024-02-21T00:13:03;42.72;;;35.78;;
10947;SDS011;5526;42.070;24.752;2024-02-21T00:15:30;45.22;;;37.10;;
10947;SDS011;5526;42.070;24.752;2024-02-21T00:17:57;45.40;;;37.25;;
10947;SDS011;5526;42.070;24.752;2024-02-21T00:20:24;46.20;;;39.45;;
10947;SDS011;5526;42.070;24.752;2024-02-21T00:22:52;40.92;;;35.95;;
10947;SDS011;5526;42.070;24.752;2024-02-21T00:25:19;41.50;;;33.92;;
10947;SDS011;5526;42.070;24.752;2024-02-21T00:27:47;38.33;;;33.17;;
10947;SDS011;5526;42.070;24.752;2024-02-21T00:30:14;37.75;;;32.50;;
10947;SDS011;5526;42.070;24.752;2024-02-21T00:32:41;35.35;;;31.48;;
10947;SDS011;5526;42.070;24.752;2024-02-21T00:35:08;34.55;;;30.27;;
10947;SDS011;5526;42.070;24.752;2024-02-21T00:37:35;33.22;;;29.60;;
10947;SDS011;5526;42.070;24.752;2024-02-21T00:40:04;34.85;;;29.08;;
10947;SDS011;5526;42.070;24.752;2024-02-21T00:42:32;33.20;;;29.52;;
10947;SDS011;5526;42.070;24.752;2024-02-21T00:44:59;33.67;;;29.10;;
10947;SDS011;5526;42.070;24.752;2024-02-21T00:47:26;32.88;;;28.48;;
10947;SDS011;5526;42.070;24.752;2024-02-21T00:49:53;31.77;;;27.58;;
10947;SDS011;5526;42.070;24.752;2024-02-21T00:52:21;43.28;;;36.28;;
10947;SDS011;5526;42.070;24.752;2024-02-21T00:54:48;53.40;;;41.70;;
10947;SDS011;5526;42.070;24.752;2024-02-21T00:57:17;33.10;;;27.80;;
10947;SDS011;5526;42.070;24.752;2024-02-21T00:59:44;30.48;;;26.70;;
10947;SDS011;5526;42.070;24.752;2024-02-21T01:02:11;28.67;;;25.30;;
10947;SDS011;5526;42.070;24.752;2024-02-21T01:04:38;27.42;;;24.48;;
10947;SDS011;5526;42.070;24.752;2024-02-21T01:07:05;27.52;;;23.48;;
10947;SDS011;5526;42.070;24.752;2024-02-21T01:09:32;26.95;;;24.05;;
10947;SDS011;5526;42.070;24.752;2024-02-21T01:11:59;26.90;;;23.08;;
10947;SDS011;5526;42.070;24.752;2024-02-21T01:14:27;26.35;;;22.98;;
10947;SDS011;5526;42.070;24.752;2024-02-21T01:16:54;28.13;;;24.90;;
10947;SDS011;5526;42.070;24.752;2024-02-21T01:19:21;37.42;;;28.60;;
10947;SDS011;5526;42.070;24.752;2024-02-21T01:21:48;37.80;;;28.50;;
10947;SDS011;5526;42.070;24.752;2024-02-21T01:24:15;33.92;;;28.13;;
10947;SDS011;5526;42.070;24.752;2024-02-21T01:26:42;33.35;;;29.58;;
10947;SDS011;5526;42.070;24.752;2024-02-21T01:29:09;34.92;;;30.33;;
10947;SDS011;5526;42.070;24.752;2024-02-21T01:31:38;36.22;;;31.33;;
10947;SDS011;5526;42.070;24.752;2024-02-21T01:34:05;38.88;;;33.83;;
10947;SDS011;5526;42.070;24.752;2024-02-21T01:36:32;38.42;;;33.10;;
10947;SDS011;5526;42.070;24.752;2024-02-21T01:38:59;37.95;;;32.20;;
10947;SDS011;5526;42.070;24.752;2024-02-21T01:41:26;39.35;;;34.70;;
10947;SDS011;5526;42.070;24.752;2024-02-21T01:43:53;40.50;;;34.75;;
10947;SDS011;5526;42.070;24.752;2024-02-21T01:46:20;39.83;;;33.40;;
10947;SDS011;5526;42.070;24.752;2024-02-21T01:48:48;36.70;;;31.83;;
10947;SDS011;5526;42.070;24.752;2024-02-21T01:51:15;40.08;;;33.10;;
10947;SDS011;5526;42.070;24.752;2024-02-21T01:53:43;37.25;;;33.15;;
10947;SDS011;5526;42.070;24.752;2024-02-21T01:56:11;36.65;;;31.25;;
10947;SDS011;5526;42.070;24.752;2024-02-21T01:58:40;33.47;;;28.20;;
10947;SDS011;5526;42.070;24.752;2024-02-21T02:01:09;39.28;;;33.20;;
10947;SDS011;5526;42.070;24.752;2024-02-21T02:03:36;57.17;;;42.20;;
10947;SDS011;5526;42.070;24.752;2024-02-21T02:06:06;41.00;;;34.30;;
10947;SDS011;5526;42.070;24.752;2024-02-21T02:08:33;34.72;;;31.00;;
10947;SDS011;5526;42.070;24.752;2024-02-21T02:11:00;34.92;;;30.00;;
10947;SDS011;5526;42.070;24.752;2024-02-21T02:13:28;35.08;;;30.05;;
10947;SDS011;5526;42.070;24.752;2024-02-21T02:15:55;35.08;;;30.48;;
10947;SDS011;5526;42.070;24.752;2024-02-21T02:18:22;36.75;;;31.05;;
10947;SDS011;5526;42.070;24.752;2024-02-21T02:20:49;37.85;;;31.90;;
10947;SDS011;5526;42.070;24.752;2024-02-21T02:23:21;36.42;;;31.70;;
10947;SDS011;5526;42.070;24.752;2024-02-21T02:25:49;37.08;;;31.35;;
10947;SDS011;5526;42.070;24.752;2024-02-21T02:28:17;35.78;;;31.20;;
10947;SDS011;5526;42.070;24.752;2024-02-21T02:30:45;28.90;;;25.80;;
10947;SDS011;5526;42.070;24.752;2024-02-21T02:33:13;26.73;;;23.92;;
10947;SDS011;5526;42.070;24.752;2024-02-21T02:35:40;37.38;;;30.52;;
10947;SDS011;5526;42.070;24.752;2024-02-21T02:38:07;26.58;;;23.67;;
10947;SDS011;5526;42.070;24.752;2024-02-21T02:40:37;25.52;;;23.02;;
10947;SDS011;5526;42.070;24.752;2024-02-21T02:43:05;23.90;;;21.50;;
10947;SDS011;5526;42.070;24.752;2024-02-21T02:45:32;23.48;;;21.02;;
10947;SDS011;5526;42.070;24.752;2024-02-21T02:47:59;22.48;;;20.17;;
10947;SDS011;5526;42.070;24.752;2024-02-21T02:50:27;22.50;;;20.25;;
10947;SDS011;5526;42.070;24.752;2024-02-21T02:52:54;22.45;;;20.25;;
10947;SDS011;5526;42.070;24.752;2024-02-21T02:55:21;25.02;;;22.33;;
10947;SDS011;5526;42.070;24.752;2024-02-21T02:57:50;32.20;;;28.70;;
10947;SDS011;5526;42.070;24.752;2024-02-21T03:00:17;36.65;;;32.03;;
10947;SDS011;5526;42.070;24.752;2024-02-21T03:02:45;40.92;;;34.45;;
10947;SDS011;5526;42.070;24.752;2024-02-21T03:05:15;39.75;;;34.30;;
10947;SDS011;5526;42.070;24.752;2024-02-21T03:07:43;40.45;;;33.88;;
10947;SDS011;5526;42.070;24.752;2024-02-21T03:10:11;42.42;;;34.08;;
10947;SDS011;5526;42.070;24.752;2024-02-21T03:12:38;40.58;;;34.28;;
10947;SDS011;5526;42.070;24.752;2024-02-21T03:15:08;40.42;;;33.53;;
10947;SDS011;5526;42.070;24.752;2024-02-21T03:17:35;41.85;;;36.63;;
10947;SDS011;5526;42.070;24.752;2024-02-21T03:20:03;41.92;;;35.53;;
10947;SDS011;5526;42.070;24.752;2024-02-21T03:22:34;39.92;;;34.47;;
10947;SDS011;5526;42.070;24.752;2024-02-21T03:25:01;39.92;;;35.40;;
10947;SDS011;5526;42.070;24.752;2024-02-21T03:27:28;41.47;;;36.80;;
10947;SDS011;5526;42.070;24.752;2024-02-21T03:29:55;40.05;;;34.42;;
10947;SDS011;5526;42.070;24.752;2024-02-21T03:32:24;38.83;;;34.63;;
10947;SDS011;5526;42.070;24.752;2024-02-21T03:34:51;38.90;;;33.20;;
10947;SDS011;5526;42.070;24.752;2024-02-21T03:37:18;44.08;;;36.90;;
10947;SDS011;5526;42.070;24.752;2024-02-21T03:39:45;39.35;;;34.80;;
10947;SDS011;5526;42.070;24.752;2024-02-21T03:42:12;42.67;;;37.50;;
10947;SDS011;5526;42.070;24.752;2024-02-21T03:44:39;42.65;;;37.80;;
10947;SDS011;5526;42.070;24.752;2024-02-21T03:47:06;55.83;;;49.95;;
10947;SDS011;5526;42.070;24.752;2024-02-21T03:49:37;41.53;;;37.13;;
10947;SDS011;5526;42.070;24.752;2024-02-21T03:52:04;39.70;;;33.33;;
10947;SDS011;5526;42.070;24.752;2024-02-21T03:54:31;36.83;;;31.98;;
10947;SDS011;5526;42.070;24.752;2024-02-21T03:56:58;35.85;;;30.98;;
10947;SDS011;5526;42.070;24.752;2024-02-21T03:59:25;33.22;;;29.63;;
10947;SDS011;5526;42.070;24.752;2024-02-21T04:01:52;34.00;;;30.33;;
10947;SDS011;5526;42.070;24.752;2024-02-21T04:04:20;34.85;;;30.80;;
10947;SDS011;5526;42.070;24.752;2024-02-21T04:06:49;36.63;;;31.65;;
10947;SDS011;5526;42.070;24.752;2024-02-21T04:09:17;36.17;;;31.17;;
10947;SDS011;5526;42.070;24.752;2024-02-21T04:11:44;38.90;;;31.52;;
10947;SDS011;5526;42.070;24.752;2024-02-21T04:14:11;35.28;;;31.48;;
10947;SDS011;5526;42.070;24.752;2024-02-21T04:16:38;34.72;;;30.90;;
10947;SDS011;5526;42.070;24.752;2024-02-21T04:19:05;36.05;;;30.40;;
10947;SDS011;5526;42.070;24.752;2024-02-21T04:21:32;33.67;;;29.70;;
10947;SDS011;5526;42.070;24.752;2024-02-21T04:24:01;33.80;;;28.25;;
10947;SDS011;5526;42.070;24.752;2024-02-21T04:26:30;30.73;;;27.05;;
10947;SDS011;5526;42.070;24.752;2024-02-21T04:28:57;28.35;;;25.30;;
10947;SDS011;5526;42.070;24.752;2024-02-21T04:31:24;29.65;;;25.80;;
10947;SDS011;5526;42.070;24.752;2024-02-21T04:33:51;27.60;;;24.70;;
10947;SDS011;5526;42.070;24.752;2024-02-21T04:36:18;28.70;;;25.67;;
10947;SDS011;5526;42.070;24.752;2024-02-21T04:38:45;27.67;;;24.73;;
10947;SDS011;5526;42.070;24.752;2024-02-21T04:41:14;27.38;;;24.38;;
10947;SDS011;5526;42.070;24.752;2024-02-21T04:43:41;28.00;;;25.00;;
10947;SDS011;5526;42.070;24.752;2024-02-21T04:46:08;29.02;;;25.38;;
10947;SDS011;5526;42.070;24.752;2024-02-21T04:48:35;26.58;;;23.75;;
10947;SDS011;5526;42.070;24.752;2024-02-21T04:51:02;29.77;;;25.98;;
10947;SDS011;5526;42.070;24.752;2024-02-21T04:53:36;34.10;;;29.10;;
10947;SDS011;5526;42.070;24.752;2024-02-21T04:56:03;31.73;;;26.83;;
10947;SDS011;5526;42.070;24.752;2024-02-21T04:58:32;29.05;;;25.85;;
10947;SDS011;5526;42.070;24.752;2024-02-21T05:00:59;27.98;;;24.95;;
10947;SDS011;5526;42.070;24.752;2024-02-21T05:03:26;30.90;;;27.48;;
10947;SDS011;5526;42.070;24.752;2024-02-21T05:05:53;37.42;;;31.75;;
10947;SDS011;5526;42.070;24.752;2024-02-21T05:08:20;34.60;;;30.20;;
10947;SDS011;5526;42.070;24.752;2024-02-21T05:10:47;34.65;;;30.58;;
10947;SDS011;5526;42.070;24.752;2024-02-21T05:13:14;36.60;;;30.67;;
10947;SDS011;5526;42.070;24.752;2024-02-21T05:15:42;36.10;;;32.03;;
10947;SDS011;5526;42.070;24.752;2024-02-21T05:18:09;32.80;;;29.20;;
10947;SDS011;5526;42.070;24.752;2024-02-21T05:20:36;31.55;;;28.15;;
10947;SDS011;5526;42.070;24.752;2024-02-21T05:23:03;30.20;;;26.90;;
10947;SDS011;5526;42.070;24.752;2024-02-21T05:25:30;30.10;;;26.95;;
10947;SDS011;5526;42.070;24.752;2024-02-21T05:27:57;30.13;;;26.42;;
10947;SDS011;5526;42.070;24.752;2024-02-21T05:30:28;31.52;;;26.98;;
10947;SDS011;5526;42.070;24.752;2024-02-21T05:32:56;32.17;;;28.25;;
10947;SDS011;5526;42.070;24.752;2024-02-21T05:35:26;35.72;;;29.52;;
10947;SDS011;5526;42.070;24.752;2024-02-21T05:37:53;34.33;;;28.73;;
10947;SDS011;5526;42.070;24.752;2024-02-21T05:40:21;36.10;;;32.25;;
10947;SDS011;5526;42.070;24.752;2024-02-21T05:42:48;37.50;;;33.50;;
10947;SDS011;5526;42.070;24.752;2024-02-21T05:45:16;35.47;;;30.35;;
10947;SDS011;5526;42.070;24.752;2024-02-21T05:47:43;37.38;;;31.42;;
10947;SDS011;5526;42.070;24.752;2024-02-21T05:50:11;37.00;;;31.65;;
10947;SDS011;5526;42.070;24.752;2024-02-21T05:52:38;35.45;;;31.58;;
10947;SDS011;5526;42.070;24.752;2024-02-21T05:55:06;34.72;;;31.00;;
10947;SDS011;5526;42.070;24.752;2024-02-21T05:57:34;35.33;;;30.25;;
10947;SDS011;5526;42.070;24.752;2024-02-21T06:00:03;33.17;;;29.67;;
10947;SDS011;5526;42.070;24.752;2024-02-21T06:02:31;35.75;;;31.85;;
10947;SDS011;5526;42.070;24.752;2024-02-21T06:04:58;38.10;;;33.92;;
10947;SDS011;5526;42.070;24.752;2024-02-21T06:07:27;35.00;;;31.25;;
10947;SDS011;5526;42.070;24.752;2024-02-21T06:09:54;36.28;;;32.40;;
10947;SDS011;5526;42.070;24.752;2024-02-21T06:12:21;37.13;;;33.22;;
10947;SDS011;5526;42.070;24.752;2024-02-21T06:14:48;40.60;;;33.45;;
10947;SDS011;5526;42.070;24.752;2024-02-21T06:17:15;35.15;;;31.42;;
10947;SDS011;5526;42.070;24.752;2024-02-21T06:19:42;30.45;;;27.13;;
10947;SDS011;5526;42.070;24.752;2024-02-21T06:22:10;24.83;;;22.00;;
10947;SDS011;5526;42.070;24.752;2024-02-21T06:24:38;23.35;;;20.92;;
10947;SDS011;5526;42.070;24.752;2024-02-21T06:27:04;21.95;;;19.70;;
10947;SDS011;5526;42.070;24.752;2024-02-21T06:29:32;16.67;;;15.02;;
10947;SDS011;5526;42.070;24.752;2024-02-21T06:31:59;15.90;;;14.35;;
10947;SDS011;5526;42.070;24.752;2024-02-21T06:34:26;14.18;;;12.77;;
10947;SDS011;5526;42.070;24.752;2024-02-21T06:36:54;11.40;;;10.32;;
10947;SDS011;5526;42.070;24.752;2024-02-21T06:39:21;10.07;;;9.15;;
10947;SDS011;5526;42.070;24.752;2024-02-21T06:41:50;9.98;;;9.13;;
10947;SDS011;5526;42.070;24.752;2024-02-21T06:44:19;10.27;;;9.27;;
10947;SDS011;5526;42.070;24.752;2024-02-21T06:46:46;9.20;;;8.40;;
10947;SDS011;5526;42.070;24.752;2024-02-21T06:49:13;11.35;;;10.30;;
10947;SDS011;5526;42.070;24.752;2024-02-21T06:51:41;35.88;;;32.08;;
10947;SDS011;5526;42.070;24.752;2024-02-21T06:54:09;44.65;;;38.92;;
10947;SDS011;5526;42.070;24.752;2024-02-21T06:56:36;44.95;;;38.33;;
10947;SDS011;5526;42.070;24.752;2024-02-21T06:59:05;36.78;;;32.72;;
10947;SDS011;5526;42.070;24.752;2024-02-21T07:01:32;32.83;;;29.33;;
10947;SDS011;5526;42.070;24.752;2024-02-21T07:03:59;28.90;;;25.88;;
10947;SDS011;5526;42.070;24.752;2024-02-21T07:06:27;24.25;;;21.40;;
10947;SDS011;5526;42.070;24.752;2024-02-21T07:08:54;24.23;;;21.73;;
10947;SDS011;5526;42.070;24.752;2024-02-21T07:11:21;20.90;;;18.70;;
10947;SDS011;5526;42.070;24.752;2024-02-21T07:13:48;17.98;;;16.10;;
10947;SDS011;5526;42.070;24.752;2024-02-21T07:16:16;33.05;;;29.60;;
10947;SDS011;5526;42.070;24.752;2024-02-21T07:18:44;35.47;;;31.63;;
10947;SDS011;5526;42.070;24.752;2024-02-21T07:21:11;31.25;;;27.95;;
10947;SDS011;5526;42.070;24.752;2024-02-21T07:23:40;25.95;;;23.25;;
10947;SDS011;5526;42.070;24.752;2024-02-21T07:26:07;25.65;;;22.67;;
10947;SDS011;5526;42.070;24.752;2024-02-21T07:28:34;21.08;;;18.88;;
10947;SDS011;5526;42.070;24.752;2024-02-21T07:31:02;15.60;;;14.18;;
10947;SDS011;5526;42.070;24.752;2024-02-21T07:33:30;14.55;;;12.88;;
10947;SDS011;5526;42.070;24.752;2024-02-21T07:35:58;13.68;;;12.48;;
10947;SDS011;5526;42.070;24.752;2024-02-21T07:38:25;10.43;;;9.52;;
10947;SDS011;5526;42.070;24.752;2024-02-21T07:40:52;10.27;;;9.45;;
10947;SDS011;5526;42.070;24.752;2024-02-21T07:43:19;10.13;;;9.23;;
10947;SDS011;5526;42.070;24.752;2024-02-21T07:45:47;14.20;;;12.75;;
10947;SDS011;5526;42.070;24.752;2024-02-21T07:48:14;14.98;;;13.57;;
10947;SDS011;5526;42.070;24.752;2024-02-21T07:50:43;14.35;;;13.05;;
10947;SDS011;5526;42.070;24.752;2024-02-21T07:53:10;15.13;;;13.73;;
10947;SDS011;5526;42.070;24.752;2024-02-21T07:55:37;14.65;;;13.25;;
10947;SDS011;5526;42.070;24.752;2024-02-21T07:58:04;14.43;;;13.02;;
10947;SDS011;5526;42.070;24.752;2024-02-21T08:00:32;13.02;;;11.73;;
10947;SDS011;5526;42.070;24.752;2024-02-21T08:03:00;13.68;;;12.27;;
10947;SDS011;5526;42.070;24.752;2024-02-21T08:05:27;13.20;;;12.00;;
10947;SDS011;5526;42.070;24.752;2024-02-21T08:07:56;14.48;;;13.00;;
10947;SDS011;5526;42.070;24.752;2024-02-21T08:10:23;14.73;;;13.23;;
10947;SDS011;5526;42.070;24.752;2024-02-21T08:12:51;16.27;;;14.65;;
10947;SDS011;5526;42.070;24.752;2024-02-21T08:15:18;14.85;;;13.45;;
10947;SDS011;5526;42.070;24.752;2024-02-21T08:17:46;11.00;;;9.90;;
10947;SDS011;5526;42.070;24.752;2024-02-21T08:20:13;10.73;;;9.48;;
10947;SDS011;5526;42.070;24.752;2024-02-21T08:22:40;9.95;;;8.95;;
10947;SDS011;5526;42.070;24.752;2024-02-21T08:25:09;9.52;;;8.73;;
10947;SDS011;5526;42.070;24.752;2024-02-21T08:27:37;8.73;;;7.85;;
10947;SDS011;5526;42.070;24.752;2024-02-21T08:30:04;9.15;;;8.27;;
10947;SDS011;5526;42.070;24.752;2024-02-21T08:32:33;9.65;;;8.60;;
10947;SDS011;5526;42.070;24.752;2024-02-21T08:35:01;8.98;;;8.07;;
10947;SDS011;5526;42.070;24.752;2024-02-21T08:37:28;10.05;;;8.88;;
10947;SDS011;5526;42.070;24.752;2024-02-21T08:39:55;10.75;;;9.20;;
10947;SDS011;5526;42.070;24.752;2024-02-21T08:42:24;8.85;;;8.02;;
10947;SDS011;5526;42.070;24.752;2024-02-21T08:44:51;8.15;;;7.45;;
10947;SDS011;5526;42.070;24.752;2024-02-21T08:47:18;7.07;;;6.47;;
10947;SDS011;5526;42.070;24.752;2024-02-21T08:49:45;6.75;;;6.25;;
10947;SDS011;5526;42.070;24.752;2024-02-21T08:52:13;8.40;;;6.35;;
10947;SDS011;5526;42.070;24.752;2024-02-21T08:54:40;7.07;;;6.47;;
10947;SDS011;5526;42.070;24.752;2024-02-21T08:57:07;7.18;;;6.57;;
10947;SDS011;5526;42.070;24.752;2024-02-21T08:59:35;6.68;;;6.15;;
10947;SDS011;5526;42.070;24.752;2024-02-21T09:02:02;8.02;;;7.32;;
10947;SDS011;5526;42.070;24.752;2024-02-21T09:04:30;6.65;;;6.15;;
10947;SDS011;5526;42.070;24.752;2024-02-21T09:06:57;6.80;;;6.20;;
10947;SDS011;5526;42.070;24.752;2024-02-21T09:09:24;6.82;;;6.22;;
10947;SDS011;5526;42.070;24.752;2024-02-21T09:11:53;7.13;;;6.43;;
10947;SDS011;5526;42.070;24.752;2024-02-21T09:14:20;8.10;;;7.13;;
10947;SDS011;5526;42.070;24.752;2024-02-21T09:16:49;7.35;;;6.75;;
10947;SDS011;5526;42.070;24.752;2024-02-21T09:19:16;6.80;;;6.20;;
10947;SDS011;5526;42.070;24.752;2024-02-21T09:21:43;7.65;;;6.95;;
10947;SDS011;5526;42.070;24.752;2024-02-21T09:24:10;7.55;;;6.85;;
10947;SDS011;5526;42.070;24.752;2024-02-21T09:26:37;9.77;;;6.78;;
10947;SDS011;5526;42.070;24.752;2024-02-21T09:29:04;8.18;;;7.32;;
10947;SDS011;5526;42.070;24.752;2024-02-21T09:31:31;8.25;;;7.55;;
10947;SDS011;5526;42.070;24.752;2024-02-21T09:34:00;7.95;;;7.25;;
10947;SDS011;5526;42.070;24.752;2024-02-21T09:36:27;8.02;;;7.32;;
10947;SDS011;5526;42.070;24.752;2024-02-21T09:38:54;6.45;;;5.85;;
10947;SDS011;5526;42.070;24.752;2024-02-21T09:41:23;7.60;;;7.00;;
10947;SDS011;5526;42.070;24.752;2024-02-21T09:43:53;7.13;;;6.50;;
10947;SDS011;5526;42.070;24.752;2024-02-21T09:46:21;7.13;;;6.53;;
10947;SDS011;5526;42.070;24.752;2024-02-21T09:48:58;8.32;;;7.53;;
10947;SDS011;5526;42.070;24.752;2024-02-21T09:51:37;7.15;;;6.55;;
10947;SDS011;5526;42.070;24.752;2024-02-21T09:54:07;7.93;;;7.18;;
10947;SDS011;5526;42.070;24.752;2024-02-21T09:56:34;6.78;;;6.25;;
10947;SDS011;5526;42.070;24.752;2024-02-21T09:59:02;10.60;;;8.55;;
10947;SDS011;5526;42.070;24.752;2024-02-21T10:01:31;8.90;;;8.10;;
10947;SDS011;5526;42.070;24.752;2024-02-21T10:03:58;7.40;;;6.80;;
10947;SDS011;5526;42.070;24.752;2024-02-21T10:06:26;8.27;;;7.57;;
10947;SDS011;5526;42.070;24.752;2024-02-21T10:08:53;8.50;;;7.70;;
10947;SDS011;5526;42.070;24.752;2024-02-21T10:11:24;7.85;;;7.05;;
10947;SDS011;5526;42.070;24.752;2024-02-21T10:13:51;5.55;;;5.10;;
10947;SDS011;5526;42.070;24.752;2024-02-21T10:16:30;5.88;;;5.38;;
10947;SDS011;5526;42.070;24.752;2024-02-21T10:18:57;4.72;;;4.38;;
10947;SDS011;5526;42.070;24.752;2024-02-21T10:21:24;5.50;;;5.05;;
10947;SDS011;5526;42.070;24.752;2024-02-21T10:23:53;5.72;;;5.32;;
10947;SDS011;5526;42.070;24.752;2024-02-21T10:26:20;6.50;;;5.90;;
10947;SDS011;5526;42.070;24.752;2024-02-21T10:28:48;5.90;;;5.30;;
10947;SDS011;5526;42.070;24.752;2024-02-21T10:31:22;5.95;;;5.45;;
10947;SDS011;5526;42.070;24.752;2024-02-21T10:33:54;6.18;;;5.57;;
10947;SDS011;5526;42.070;24.752;2024-02-21T10:36:22;6.40;;;5.90;;
10947;SDS011;5526;42.070;24.752;2024-02-21T10:38:50;6.45;;;5.85;;
10947;SDS011;5526;42.070;24.752;2024-02-21T10:41:18;6.20;;;5.60;;
10947;SDS011;5526;42.070;24.752;2024-02-21T10:43:49;6.30;;;5.70;;
10947;SDS011;5526;42.070;24.752;2024-02-21T10:46:19;6.43;;;5.82;;
10947;SDS011;5526;42.070;24.752;2024-02-21T10:48:47;6.07;;;5.47;;
10947;SDS011;5526;42.070;24.752;2024-02-21T10:51:17;8.00;;;5.43;;
10947;SDS011;5526;42.070;24.752;2024-02-21T10:53:47;5.88;;;5.38;;
10947;SDS011;5526;42.070;24.752;2024-02-21T10:56:26;6.32;;;5.78;;
10947;SDS011;5526;42.070;24.752;2024-02-21T10:58:57;5.93;;;5.43;;
10947;SDS011;5526;42.070;24.752;2024-02-21T11:01:28;5.45;;;4.90;;
10947;SDS011;5526;42.070;24.752;2024-02-21T11:03:57;5.20;;;4.80;;
10947;SDS011;5526;42.070;24.752;2024-02-21T11:06:26;5.30;;;4.90;;
10947;SDS011;5526;42.070;24.752;2024-02-21T11:09:01;5.32;;;4.93;;
10947;SDS011;5526;42.070;24.752;2024-02-21T11:11:31;6.10;;;5.53;;
10947;SDS011;5526;42.070;24.752;2024-02-21T11:14:06;4.13;;;3.78;;
10947;SDS011;5526;42.070;24.752;2024-02-21T11:16:37;4.20;;;3.90;;
10947;SDS011;5526;42.070;24.752;2024-02-21T11:19:06;4.50;;;4.20;;
10947;SDS011;5526;42.070;24.752;2024-02-21T11:21:34;4.82;;;4.43;;
10947;SDS011;5526;42.070;24.752;2024-02-21T11:24:02;4.40;;;4.10;;
10947;SDS011;5526;42.070;24.752;2024-02-21T11:26:29;4.57;;;4.18;;
10947;SDS011;5526;42.070;24.752;2024-02-21T11:28:59;3.92;;;3.63;;
10947;SDS011;5526;42.070;24.752;2024-02-21T11:31:26;4.20;;;3.90;;
10947;SDS011;5526;42.070;24.752;2024-02-21T11:33:54;4.85;;;4.45;;
10947;SDS011;5526;42.070;24.752;2024-02-21T11:36:24;4.30;;;3.90;;
10947;SDS011;5526;42.070;24.752;2024-02-21T11:38:52;4.32;;;4.03;;
10947;SDS011;5526;42.070;24.752;2024-02-21T11:41:19;3.55;;;3.33;;
10947;SDS011;5526;42.070;24.752;2024-02-21T11:43:49;3.72;;;3.42;;
10947;SDS011;5526;42.070;24.752;2024-02-21T11:46:17;3.88;;;3.58;;
10947;SDS011;5526;42.070;24.752;2024-02-21T11:48:45;4.68;;;4.35;;
10947;SDS011;5526;42.070;24.752;2024-02-21T11:51:20;4.45;;;4.05;;
10947;SDS011;5526;42.070;24.752;2024-02-21T11:53:48;4.63;;;4.32;;
10947;SDS011;5526;42.070;24.752;2024-02-21T11:56:15;5.18;;;4.78;;
10947;SDS011;5526;42.070;24.752;2024-02-21T11:58:42;4.55;;;4.20;;
10947;SDS011;5526;42.070;24.752;2024-02-21T12:01:11;4.72;;;4.32;;
10947;SDS011;5526;42.070;24.752;2024-02-21T12:03:38;4.97;;;4.57;;
10947;SDS011;5526;42.070;24.752;2024-02-21T12:06:06;5.55;;;5.10;;
10947;SDS011;5526;42.070;24.752;2024-02-21T12:08:42;6.28;;;4.47;;
10947;SDS011;5526;42.070;24.752;2024-02-21T12:11:19;5.18;;;4.78;;
10947;SDS011;5526;42.070;24.752;2024-02-21T12:13:47;5.28;;;4.93;;
10947;SDS011;5526;42.070;24.752;2024-02-21T12:16:26;6.55;;;5.28;;
10947;SDS011;5526;42.070;24.752;2024-02-21T12:18:54;8.07;;;6.43;;
10947;SDS011;5526;42.070;24.752;2024-02-21T12:21:23;5.05;;;4.60;;
10947;SDS011;5526;42.070;24.752;2024-02-21T12:23:53;4.85;;;4.50;;
10947;SDS011;5526;42.070;24.752;2024-02-21T12:26:20;4.78;;;4.32;;
10947;SDS011;5526;42.070;24.752;2024-02-21T12:28:47;4.40;;;4.10;;
10947;SDS011;5526;42.070;24.752;2024-02-21T12:31:15;4.13;;;3.83;;
10947;SDS011;5526;42.070;24.752;2024-02-21T12:33:44;4.75;;;4.35;;
10947;SDS011;5526;42.070;24.752;2024-02-21T12:36:11;4.45;;;4.15;;
10947;SDS011;5526;42.070;24.752;2024-02-21T12:38:38;4.22;;;3.83;;
10947;SDS011;5526;42.070;24.752;2024-02-21T12:41:05;4.18;;;3.88;;
10947;SDS011;5526;42.070;24.752;2024-02-21T12:43:33;4.10;;;3.70;;
10947;SDS011;5526;42.070;24.752;2024-02-21T12:46:00;3.65;;;3.35;;
10947;SDS011;5526;42.070;24.752;2024-02-21T12:48:28;3.80;;;3.50;;
10947;SDS011;5526;42.070;24.752;2024-02-21T12:50:56;3.88;;;3.38;;
10947;SDS011;5526;42.070;24.752;2024-02-21T12:53:23;3.97;;;3.67;;
10947;SDS011;5526;42.070;24.752;2024-02-21T12:55:51;3.92;;;3.55;;
10947;SDS011;5526;42.070;24.752;2024-02-21T12:58:18;4.00;;;3.70;;
10947;SDS011;5526;42.070;24.752;2024-02-21T13:00:46;4.22;;;3.20;;
10947;SDS011;5526;42.070;24.752;2024-02-21T13:03:13;3.30;;;3.10;;
10947;SDS011;5526;42.070;24.752;2024-02-21T13:05:41;4.13;;;3.20;;
10947;SDS011;5526;42.070;24.752;2024-02-21T13:08:09;3.25;;;3.05;;
10947;SDS011;5526;42.070;24.752;2024-02-21T13:10:37;3.28;;;3.05;;
10947;SDS011;5526;42.070;24.752;2024-02-21T13:13:04;4.05;;;3.30;;
10947;SDS011;5526;42.070;24.752;2024-02-21T13:15:31;2.80;;;2.60;;
10947;SDS011;5526;42.070;24.752;2024-02-21T13:17:59;2.70;;;2.50;;
10947;SDS011;5526;42.070;24.752;2024-02-21T13:20:26;4.03;;;2.28;;
10947;SDS011;5526;42.070;24.752;2024-02-21T13:22:54;2.80;;;2.60;;
10947;SDS011;5526;42.070;24.752;2024-02-21T13:25:22;2.63;;;2.42;;
10947;SDS011;5526;42.070;24.752;2024-02-21T13:27:49;2.85;;;2.65;;
10947;SDS011;5526;42.070;24.752;2024-02-21T13:30:16;3.30;;;3.03;;
10947;SDS011;5526;42.070;24.752;2024-02-21T13:32:44;2.60;;;2.40;;
10947;SDS011;5526;42.070;24.752;2024-02-21T13:35:12;2.58;;;2.40;;
10947;SDS011;5526;42.070;24.752;2024-02-21T13:37:40;2.83;;;2.63;;
10947;SDS011;5526;42.070;24.752;2024-02-21T13:40:08;2.40;;;2.25;;
10947;SDS011;5526;42.070;24.752;2024-02-21T13:42:37;2.38;;;2.28;;
10947;SDS011;5526;42.070;24.752;2024-02-21T13:45:04;4.28;;;3.70;;
10947;SDS011;5526;42.070;24.752;2024-02-21T13:47:32;2.75;;;2.53;;
10947;SDS011;5526;42.070;24.752;2024-02-21T13:50:01;3.58;;;2.95;;
10947;SDS011;5526;42.070;24.752;2024-02-21T13:52:34;2.75;;;2.55;;
10947;SDS011;5526;42.070;24.752;2024-02-21T13:55:01;2.42;;;2.22;;
10947;SDS011;5526;42.070;24.752;2024-02-21T13:57:28;2.78;;;2.45;;
10947;SDS011;5526;42.070;24.752;2024-02-21T13:59:57;2.67;;;2.58;;
10947;SDS011;5526;42.070;24.752;2024-02-21T14:02:24;2.88;;;2.67;;
10947;SDS011;5526;42.070;24.752;2024-02-21T14:04:51;2.92;;;2.67;;
10947;SDS011;5526;42.070;24.752;2024-02-21T14:07:18;2.85;;;2.60;;
10947;SDS011;5526;42.070;24.752;2024-02-21T14:09:46;3.28;;;3.00;;
10947;SDS011;5526;42.070;24.752;2024-02-21T14:12:13;3.90;;;3.60;;
10947;SDS011;5526;42.070;24.752;2024-02-21T14:14:43;4.03;;;3.33;;
10947;SDS011;5526;42.070;24.752;2024-02-21T14:17:11;3.63;;;3.33;;
10947;SDS011;5526;42.070;24.752;2024-02-21T14:19:38;3.78;;;3.42;;
10947;SDS011;5526;42.070;24.752;2024-02-21T14:22:06;3.75;;;3.45;;
10947;SDS011;5526;42.070;24.752;2024-02-21T14:24:35;4.32;;;3.58;;
10947;SDS011;5526;42.070;24.752;2024-02-21T14:27:02;3.40;;;3.20;;
10947;SDS011;5526;42.070;24.752;2024-02-21T14:29:30;3.95;;;3.65;;
10947;SDS011;5526;42.070;24.752;2024-02-21T14:31:57;3.58;;;3.28;;
10947;SDS011;5526;42.070;24.752;2024-02-21T14:34:25;6.63;;;4.40;;
10947;SDS011;5526;42.070;24.752;2024-02-21T14:36:52;3.35;;;3.15;;